sensor_id;sensor_type;location;lat;lon;timestamp;P1;durP1;ratioP1;P2;durP2;ratioP2
39518;SDS011;25200;53.394;10.414;2022-09-29T00:01:29;9.50;;;5.38;;
39518;SDS011;25200;53.394;10.414;2022-09-29T00:03:55;10.45;;;5.03;;
39518;SDS011;25200;53.394;10.414;2022-09-29T00:06:21;9.10;;;5.07;;
39518;SDS011;25200;53.394;10.414;2022-09-29T00:08:47;8.82;;;5.10;;
39518;SDS011;25200;53.394;10.414;2022-09-29T00:11:14;8.63;;;5.10;;
39518;SDS011;25200;53.394;10.414;2022-09-29T00:13:41;8.30;;;4.78;;
39518;SDS011;25200;53.394;10.414;2022-09-29T00:16:08;8.85;;;4.97;;
39518;SDS011;25200;53.394;10.414;2022-09-29T00:18:34;8.35;;;5.10;;
39518;SDS011;25200;53.394;10.414;2022-09-29T00:23:27;8.95;;;5.10;;
39518;SDS011;25200;53.394;10.414;2022-09-29T00:26:00;9.57;;;5.18;;
39518;SDS011;25200;53.394;10.414;2022-09-29T00:28:29;7.65;;;4.65;;
39518;SDS011;25200;53.394;10.414;2022-09-29T00:30:56;8.95;;;5.30;;
39518;SDS011;25200;53.394;10.414;2022-09-29T00:33:24;8.18;;;4.60;;
39518;SDS011;25200;53.394;10.414;2022-09-29T00:35:56;10.98;;;4.72;;
39518;SDS011;25200;53.394;10.414;2022-09-29T00:38:33;8.20;;;4.85;;
39518;SDS011;25200;53.394;10.414;2022-09-29T00:41:00;14.45;;;4.45;;
39518;SDS011;25200;53.394;10.414;2022-09-29T00:46:14;8.95;;;4.80;;
39518;SDS011;25200;53.394;10.414;2022-09-29T00:48:43;9.23;;;4.72;;
39518;SDS011;25200;53.394;10.414;2022-09-29T00:51:10;9.00;;;4.55;;
39518;SDS011;25200;53.394;10.414;2022-09-29T00:53:37;8.88;;;5.03;;
39518;SDS011;25200;53.394;10.414;2022-09-29T00:56:05;9.05;;;4.47;;
39518;SDS011;25200;53.394;10.414;2022-09-29T00:58:36;9.88;;;4.60;;
39518;SDS011;25200;53.394;10.414;2022-09-29T01:01:06;6.53;;;4.07;;
39518;SDS011;25200;53.394;10.414;2022-09-29T01:03:33;9.30;;;5.10;;
39518;SDS011;25200;53.394;10.414;2022-09-29T01:06:05;9.38;;;5.00;;
39518;SDS011;25200;53.394;10.414;2022-09-29T01:11:12;8.13;;;4.60;;
39518;SDS011;25200;53.394;10.414;2022-09-29T01:13:40;8.57;;;4.43;;
39518;SDS011;25200;53.394;10.414;2022-09-29T01:16:06;8.23;;;4.38;;
39518;SDS011;25200;53.394;10.414;2022-09-29T01:18:32;8.30;;;4.00;;
39518;SDS011;25200;53.394;10.414;2022-09-29T01:33:30;9.32;;;4.85;;
39518;SDS011;25200;53.394;10.414;2022-09-29T01:40:57;9.43;;;4.70;;
39518;SDS011;25200;53.394;10.414;2022-09-29T01:46:43;8.75;;;4.78;;
39518;SDS011;25200;53.394;10.414;2022-09-29T01:49:12;9.73;;;4.55;;
39518;SDS011;25200;53.394;10.414;2022-09-29T01:51:40;8.98;;;5.22;;
39518;SDS011;25200;53.394;10.414;2022-09-29T01:54:15;8.48;;;4.50;;
39518;SDS011;25200;53.394;10.414;2022-09-29T01:56:58;9.85;;;5.20;;
39518;SDS011;25200;53.394;10.414;2022-09-29T01:59:35;11.27;;;5.30;;
39518;SDS011;25200;53.394;10.414;2022-09-29T02:02:06;10.02;;;5.15;;
39518;SDS011;25200;53.394;10.414;2022-09-29T02:04:57;11.20;;;4.97;;
39518;SDS011;25200;53.394;10.414;2022-09-29T02:07:43;10.80;;;5.40;;
39518;SDS011;25200;53.394;10.414;2022-09-29T02:10:28;9.52;;;4.97;;
39518;SDS011;25200;53.394;10.414;2022-09-29T02:12:58;11.40;;;5.45;;
39518;SDS011;25200;53.394;10.414;2022-09-29T02:15:28;10.90;;;5.07;;
39518;SDS011;25200;53.394;10.414;2022-09-29T02:17:59;9.40;;;5.53;;
39518;SDS011;25200;53.394;10.414;2022-09-29T02:20:31;10.20;;;5.53;;
39518;SDS011;25200;53.394;10.414;2022-09-29T02:22:57;11.65;;;5.63;;
39518;SDS011;25200;53.394;10.414;2022-09-29T02:25:23;11.80;;;5.30;;
39518;SDS011;25200;53.394;10.414;2022-09-29T02:27:49;9.93;;;5.68;;
39518;SDS011;25200;53.394;10.414;2022-09-29T02:30:15;10.00;;;5.85;;
39518;SDS011;25200;53.394;10.414;2022-09-29T02:32:41;11.00;;;5.78;;
39518;SDS011;25200;53.394;10.414;2022-09-29T02:35:08;10.90;;;5.47;;
39518;SDS011;25200;53.394;10.414;2022-09-29T02:38:01;11.73;;;5.95;;
39518;SDS011;25200;53.394;10.414;2022-09-29T02:40:47;10.43;;;5.90;;
39518;SDS011;25200;53.394;10.414;2022-09-29T02:46:28;10.30;;;5.30;;
39518;SDS011;25200;53.394;10.414;2022-09-29T02:49:34;12.02;;;5.25;;
39518;SDS011;25200;53.394;10.414;2022-09-29T02:55:12;8.55;;;4.68;;
39518;SDS011;25200;53.394;10.414;2022-09-29T02:57:53;9.32;;;4.82;;
39518;SDS011;25200;53.394;10.414;2022-09-29T03:00:23;10.53;;;5.33;;
39518;SDS011;25200;53.394;10.414;2022-09-29T03:02:51;8.65;;;5.03;;
39518;SDS011;25200;53.394;10.414;2022-09-29T03:05:18;9.65;;;5.03;;
39518;SDS011;25200;53.394;10.414;2022-09-29T03:07:46;9.00;;;4.80;;
39518;SDS011;25200;53.394;10.414;2022-09-29T03:10:13;8.73;;;4.55;;
39518;SDS011;25200;53.394;10.414;2022-09-29T03:12:40;9.63;;;4.97;;
39518;SDS011;25200;53.394;10.414;2022-09-29T03:15:06;8.75;;;4.57;;
39518;SDS011;25200;53.394;10.414;2022-09-29T03:17:32;10.88;;;4.82;;
39518;SDS011;25200;53.394;10.414;2022-09-29T03:19:58;11.32;;;5.18;;
39518;SDS011;25200;53.394;10.414;2022-09-29T03:22:23;11.27;;;5.25;;
39518;SDS011;25200;53.394;10.414;2022-09-29T03:24:49;8.85;;;5.07;;
39518;SDS011;25200;53.394;10.414;2022-09-29T03:27:15;9.10;;;4.65;;
39518;SDS011;25200;53.394;10.414;2022-09-29T03:29:41;8.52;;;4.95;;
39518;SDS011;25200;53.394;10.414;2022-09-29T03:32:07;9.93;;;4.70;;
39518;SDS011;25200;53.394;10.414;2022-09-29T03:34:33;11.05;;;4.80;;
39518;SDS011;25200;53.394;10.414;2022-09-29T03:36:59;10.70;;;5.18;;
39518;SDS011;25200;53.394;10.414;2022-09-29T03:39:25;10.02;;;4.80;;
39518;SDS011;25200;53.394;10.414;2022-09-29T03:41:50;8.15;;;4.53;;
39518;SDS011;25200;53.394;10.414;2022-09-29T03:44:16;9.02;;;5.00;;
39518;SDS011;25200;53.394;10.414;2022-09-29T03:46:42;10.02;;;5.10;;
39518;SDS011;25200;53.394;10.414;2022-09-29T03:49:11;9.85;;;4.88;;
39518;SDS011;25200;53.394;10.414;2022-09-29T03:51:37;8.82;;;4.75;;
39518;SDS011;25200;53.394;10.414;2022-09-29T03:54:03;10.77;;;5.25;;
39518;SDS011;25200;53.394;10.414;2022-09-29T03:56:29;8.63;;;4.70;;
39518;SDS011;25200;53.394;10.414;2022-09-29T03:58:55;8.20;;;4.90;;
39518;SDS011;25200;53.394;10.414;2022-09-29T04:01:21;11.45;;;4.88;;
39518;SDS011;25200;53.394;10.414;2022-09-29T04:03:46;10.52;;;4.57;;
39518;SDS011;25200;53.394;10.414;2022-09-29T04:06:12;9.98;;;4.88;;
39518;SDS011;25200;53.394;10.414;2022-09-29T04:08:38;11.93;;;4.85;;
39518;SDS011;25200;53.394;10.414;2022-09-29T04:11:04;9.02;;;4.60;;
39518;SDS011;25200;53.394;10.414;2022-09-29T04:13:30;11.10;;;4.65;;
39518;SDS011;25200;53.394;10.414;2022-09-29T04:16:01;9.20;;;4.97;;
39518;SDS011;25200;53.394;10.414;2022-09-29T04:18:29;9.00;;;4.68;;
39518;SDS011;25200;53.394;10.414;2022-09-29T04:20:55;10.55;;;4.88;;
39518;SDS011;25200;53.394;10.414;2022-09-29T04:23:25;7.85;;;4.40;;
39518;SDS011;25200;53.394;10.414;2022-09-29T04:25:53;10.48;;;4.80;;
39518;SDS011;25200;53.394;10.414;2022-09-29T04:28:19;8.25;;;4.72;;
39518;SDS011;25200;53.394;10.414;2022-09-29T04:30:45;9.43;;;4.95;;
39518;SDS011;25200;53.394;10.414;2022-09-29T04:33:10;11.13;;;4.90;;
39518;SDS011;25200;53.394;10.414;2022-09-29T04:35:36;12.07;;;5.13;;
39518;SDS011;25200;53.394;10.414;2022-09-29T04:38:01;10.10;;;4.72;;
39518;SDS011;25200;53.394;10.414;2022-09-29T04:40:27;9.50;;;5.15;;
39518;SDS011;25200;53.394;10.414;2022-09-29T04:42:53;13.15;;;5.43;;
39518;SDS011;25200;53.394;10.414;2022-09-29T04:45:18;9.20;;;5.05;;
39518;SDS011;25200;53.394;10.414;2022-09-29T04:47:44;9.80;;;4.95;;
39518;SDS011;25200;53.394;10.414;2022-09-29T04:50:09;9.05;;;4.90;;
39518;SDS011;25200;53.394;10.414;2022-09-29T04:52:35;10.48;;;5.47;;
39518;SDS011;25200;53.394;10.414;2022-09-29T04:55:01;8.93;;;4.95;;
39518;SDS011;25200;53.394;10.414;2022-09-29T04:57:28;9.60;;;4.85;;
39518;SDS011;25200;53.394;10.414;2022-09-29T04:59:53;9.35;;;4.90;;
39518;SDS011;25200;53.394;10.414;2022-09-29T05:02:20;9.85;;;5.00;;
39518;SDS011;25200;53.394;10.414;2022-09-29T05:04:45;9.10;;;4.65;;
39518;SDS011;25200;53.394;10.414;2022-09-29T05:07:12;9.43;;;4.80;;
39518;SDS011;25200;53.394;10.414;2022-09-29T05:09:38;8.95;;;4.40;;
39518;SDS011;25200;53.394;10.414;2022-09-29T05:12:04;9.20;;;4.82;;
39518;SDS011;25200;53.394;10.414;2022-09-29T05:14:29;9.10;;;5.22;;
39518;SDS011;25200;53.394;10.414;2022-09-29T05:16:55;10.35;;;4.72;;
39518;SDS011;25200;53.394;10.414;2022-09-29T05:19:22;9.15;;;4.68;;
39518;SDS011;25200;53.394;10.414;2022-09-29T05:21:48;8.68;;;4.95;;
39518;SDS011;25200;53.394;10.414;2022-09-29T05:24:13;9.65;;;5.45;;
39518;SDS011;25200;53.394;10.414;2022-09-29T05:26:39;9.85;;;4.70;;
39518;SDS011;25200;53.394;10.414;2022-09-29T05:29:05;11.45;;;5.30;;
39518;SDS011;25200;53.394;10.414;2022-09-29T05:31:30;9.85;;;5.18;;
39518;SDS011;25200;53.394;10.414;2022-09-29T05:33:56;12.85;;;5.90;;
39518;SDS011;25200;53.394;10.414;2022-09-29T05:36:22;11.20;;;5.50;;
39518;SDS011;25200;53.394;10.414;2022-09-29T05:38:47;9.68;;;5.22;;
39518;SDS011;25200;53.394;10.414;2022-09-29T05:41:14;9.88;;;5.30;;
39518;SDS011;25200;53.394;10.414;2022-09-29T05:43:57;11.25;;;4.88;;
39518;SDS011;25200;53.394;10.414;2022-09-29T05:46:24;10.05;;;4.38;;
39518;SDS011;25200;53.394;10.414;2022-09-29T05:48:50;10.10;;;4.85;;
39518;SDS011;25200;53.394;10.414;2022-09-29T05:51:17;11.15;;;5.65;;
39518;SDS011;25200;53.394;10.414;2022-09-29T05:53:44;8.80;;;5.13;;
39518;SDS011;25200;53.394;10.414;2022-09-29T05:56:12;8.30;;;4.88;;
39518;SDS011;25200;53.394;10.414;2022-09-29T05:58:40;11.00;;;5.55;;
39518;SDS011;25200;53.394;10.414;2022-09-29T06:03:32;10.18;;;5.32;;
39518;SDS011;25200;53.394;10.414;2022-09-29T06:06:03;11.52;;;5.40;;
39518;SDS011;25200;53.394;10.414;2022-09-29T06:08:30;14.48;;;5.93;;
39518;SDS011;25200;53.394;10.414;2022-09-29T06:11:01;13.80;;;6.43;;
39518;SDS011;25200;53.394;10.414;2022-09-29T06:13:30;13.35;;;6.05;;
39518;SDS011;25200;53.394;10.414;2022-09-29T06:15:59;12.60;;;6.50;;
39518;SDS011;25200;53.394;10.414;2022-09-29T06:18:25;15.77;;;7.40;;
39518;SDS011;25200;53.394;10.414;2022-09-29T06:20:51;15.63;;;7.88;;
39518;SDS011;25200;53.394;10.414;2022-09-29T06:23:16;14.70;;;8.18;;
39518;SDS011;25200;53.394;10.414;2022-09-29T06:25:42;15.23;;;7.57;;
39518;SDS011;25200;53.394;10.414;2022-09-29T06:28:07;14.18;;;7.15;;
39518;SDS011;25200;53.394;10.414;2022-09-29T06:30:33;16.42;;;8.38;;
39518;SDS011;25200;53.394;10.414;2022-09-29T06:32:58;13.30;;;8.05;;
39518;SDS011;25200;53.394;10.414;2022-09-29T06:35:24;16.58;;;7.93;;
39518;SDS011;25200;53.394;10.414;2022-09-29T06:38:08;13.88;;;7.53;;
39518;SDS011;25200;53.394;10.414;2022-09-29T06:40:34;16.48;;;8.85;;
39518;SDS011;25200;53.394;10.414;2022-09-29T06:43:00;14.77;;;8.07;;
39518;SDS011;25200;53.394;10.414;2022-09-29T06:45:26;18.20;;;8.88;;
39518;SDS011;25200;53.394;10.414;2022-09-29T06:47:56;17.80;;;8.30;;
39518;SDS011;25200;53.394;10.414;2022-09-29T06:50:23;18.02;;;8.55;;
39518;SDS011;25200;53.394;10.414;2022-09-29T06:52:49;15.68;;;8.95;;
39518;SDS011;25200;53.394;10.414;2022-09-29T06:55:15;16.90;;;8.88;;
39518;SDS011;25200;53.394;10.414;2022-09-29T06:57:40;18.33;;;9.55;;
39518;SDS011;25200;53.394;10.414;2022-09-29T07:00:06;20.33;;;9.40;;
39518;SDS011;25200;53.394;10.414;2022-09-29T07:02:32;17.98;;;9.30;;
39518;SDS011;25200;53.394;10.414;2022-09-29T07:04:58;19.02;;;10.18;;
39518;SDS011;25200;53.394;10.414;2022-09-29T07:07:24;20.20;;;10.27;;
39518;SDS011;25200;53.394;10.414;2022-09-29T07:09:49;20.92;;;11.02;;
39518;SDS011;25200;53.394;10.414;2022-09-29T07:12:15;19.58;;;10.05;;
39518;SDS011;25200;53.394;10.414;2022-09-29T07:14:40;20.55;;;11.05;;
39518;SDS011;25200;53.394;10.414;2022-09-29T07:17:06;21.00;;;10.50;;
39518;SDS011;25200;53.394;10.414;2022-09-29T07:19:33;16.85;;;9.43;;
39518;SDS011;25200;53.394;10.414;2022-09-29T07:21:59;21.40;;;9.40;;
39518;SDS011;25200;53.394;10.414;2022-09-29T07:24:24;21.08;;;11.05;;
39518;SDS011;25200;53.394;10.414;2022-09-29T07:26:50;21.75;;;10.48;;
39518;SDS011;25200;53.394;10.414;2022-09-29T07:29:16;18.35;;;10.07;;
39518;SDS011;25200;53.394;10.414;2022-09-29T07:31:42;20.13;;;11.25;;
39518;SDS011;25200;53.394;10.414;2022-09-29T07:34:09;21.38;;;11.02;;
39518;SDS011;25200;53.394;10.414;2022-09-29T07:36:35;20.23;;;11.43;;
39518;SDS011;25200;53.394;10.414;2022-09-29T07:39:03;23.67;;;12.00;;
39518;SDS011;25200;53.394;10.414;2022-09-29T07:41:29;23.02;;;12.20;;
39518;SDS011;25200;53.394;10.414;2022-09-29T07:43:54;24.35;;;12.88;;
39518;SDS011;25200;53.394;10.414;2022-09-29T07:46:20;22.70;;;12.45;;
39518;SDS011;25200;53.394;10.414;2022-09-29T07:48:46;26.52;;;12.80;;
39518;SDS011;25200;53.394;10.414;2022-09-29T07:51:12;25.98;;;12.30;;
39518;SDS011;25200;53.394;10.414;2022-09-29T07:53:40;21.25;;;12.07;;
39518;SDS011;25200;53.394;10.414;2022-09-29T07:56:19;26.38;;;13.05;;
39518;SDS011;25200;53.394;10.414;2022-09-29T07:58:47;21.85;;;11.68;;
39518;SDS011;25200;53.394;10.414;2022-09-29T08:01:14;27.10;;;13.48;;
39518;SDS011;25200;53.394;10.414;2022-09-29T08:03:41;26.23;;;13.60;;
39518;SDS011;25200;53.394;10.414;2022-09-29T08:06:11;26.25;;;14.20;;
39518;SDS011;25200;53.394;10.414;2022-09-29T08:08:37;25.23;;;13.73;;
39518;SDS011;25200;53.394;10.414;2022-09-29T08:11:04;26.23;;;14.27;;
39518;SDS011;25200;53.394;10.414;2022-09-29T08:13:38;24.95;;;12.88;;
39518;SDS011;25200;53.394;10.414;2022-09-29T08:16:05;26.75;;;13.90;;
39518;SDS011;25200;53.394;10.414;2022-09-29T08:18:32;24.40;;;14.20;;
39518;SDS011;25200;53.394;10.414;2022-09-29T08:20:59;25.75;;;14.60;;
39518;SDS011;25200;53.394;10.414;2022-09-29T08:23:25;23.15;;;14.07;;
39518;SDS011;25200;53.394;10.414;2022-09-29T08:26:00;24.40;;;13.57;;
39518;SDS011;25200;53.394;10.414;2022-09-29T08:28:28;23.10;;;14.10;;
39518;SDS011;25200;53.394;10.414;2022-09-29T08:30:55;22.38;;;13.13;;
39518;SDS011;25200;53.394;10.414;2022-09-29T08:33:21;25.85;;;14.23;;
39518;SDS011;25200;53.394;10.414;2022-09-29T08:35:53;22.15;;;12.50;;
39518;SDS011;25200;53.394;10.414;2022-09-29T08:38:20;23.95;;;14.10;;
39518;SDS011;25200;53.394;10.414;2022-09-29T08:40:45;20.02;;;12.57;;
39518;SDS011;25200;53.394;10.414;2022-09-29T08:43:15;18.83;;;12.02;;
39518;SDS011;25200;53.394;10.414;2022-09-29T08:46:04;19.25;;;12.02;;
39518;SDS011;25200;53.394;10.414;2022-09-29T08:48:35;20.45;;;12.07;;
39518;SDS011;25200;53.394;10.414;2022-09-29T08:51:10;20.35;;;12.95;;
39518;SDS011;25200;53.394;10.414;2022-09-29T08:53:48;16.55;;;10.85;;
39518;SDS011;25200;53.394;10.414;2022-09-29T08:56:17;18.33;;;10.88;;
39518;SDS011;25200;53.394;10.414;2022-09-29T08:58:43;18.27;;;11.00;;
39518;SDS011;25200;53.394;10.414;2022-09-29T09:06:25;18.20;;;11.05;;
39518;SDS011;25200;53.394;10.414;2022-09-29T09:20:27;13.82;;;9.15;;
39518;SDS011;25200;53.394;10.414;2022-09-29T09:26:00;14.20;;;8.13;;
39518;SDS011;25200;53.394;10.414;2022-09-29T09:28:31;13.75;;;8.23;;
39518;SDS011;25200;53.394;10.414;2022-09-29T09:31:05;13.68;;;7.97;;
39518;SDS011;25200;53.394;10.414;2022-09-29T09:39:12;14.30;;;8.90;;
39518;SDS011;25200;53.394;10.414;2022-09-29T09:41:44;13.05;;;8.55;;
39518;SDS011;25200;53.394;10.414;2022-09-29T09:44:18;13.90;;;8.82;;
39518;SDS011;25200;53.394;10.414;2022-09-29T09:49:44;14.32;;;9.48;;
39518;SDS011;25200;53.394;10.414;2022-09-29T09:52:20;13.88;;;8.93;;
39518;SDS011;25200;53.394;10.414;2022-09-29T09:54:53;13.25;;;8.52;;
39518;SDS011;25200;53.394;10.414;2022-09-29T10:03:08;15.98;;;9.40;;
39518;SDS011;25200;53.394;10.414;2022-09-29T10:05:40;14.00;;;9.23;;
39518;SDS011;25200;53.394;10.414;2022-09-29T10:08:11;12.48;;;7.90;;
39518;SDS011;25200;53.394;10.414;2022-09-29T10:10:50;14.40;;;7.75;;
39518;SDS011;25200;53.394;10.414;2022-09-29T10:13:16;14.68;;;8.60;;
39518;SDS011;25200;53.394;10.414;2022-09-29T10:18:29;12.18;;;7.95;;
39518;SDS011;25200;53.394;10.414;2022-09-29T10:20:58;12.50;;;8.43;;
39518;SDS011;25200;53.394;10.414;2022-09-29T10:28:47;14.02;;;7.22;;
39518;SDS011;25200;53.394;10.414;2022-09-29T10:33:52;12.05;;;7.05;;
39518;SDS011;25200;53.394;10.414;2022-09-29T10:36:20;10.57;;;7.15;;
39518;SDS011;25200;53.394;10.414;2022-09-29T10:38:48;11.40;;;7.15;;
39518;SDS011;25200;53.394;10.414;2022-09-29T10:41:16;9.93;;;6.57;;
39518;SDS011;25200;53.394;10.414;2022-09-29T10:43:44;12.10;;;7.15;;
39518;SDS011;25200;53.394;10.414;2022-09-29T10:49:17;8.13;;;5.00;;
39518;SDS011;25200;53.394;10.414;2022-09-29T10:54:18;9.40;;;4.53;;
39518;SDS011;25200;53.394;10.414;2022-09-29T10:56:45;7.47;;;4.10;;
39518;SDS011;25200;53.394;10.414;2022-09-29T10:59:12;6.95;;;3.88;;
39518;SDS011;25200;53.394;10.414;2022-09-29T11:01:46;8.30;;;4.65;;
39518;SDS011;25200;53.394;10.414;2022-09-29T11:04:28;7.82;;;4.45;;
39518;SDS011;25200;53.394;10.414;2022-09-29T11:07:04;9.77;;;5.85;;
39518;SDS011;25200;53.394;10.414;2022-09-29T11:09:36;10.80;;;5.43;;
39518;SDS011;25200;53.394;10.414;2022-09-29T11:14:53;6.55;;;3.63;;
39518;SDS011;25200;53.394;10.414;2022-09-29T11:19:52;7.70;;;3.03;;
39518;SDS011;25200;53.394;10.414;2022-09-29T11:30:20;8.95;;;3.70;;
39518;SDS011;25200;53.394;10.414;2022-09-29T11:36:07;6.97;;;3.47;;
39518;SDS011;25200;53.394;10.414;2022-09-29T11:41:35;6.40;;;3.83;;
39518;SDS011;25200;53.394;10.414;2022-09-29T12:00:19;8.40;;;4.32;;
39518;SDS011;25200;53.394;10.414;2022-09-29T12:13:47;7.97;;;4.80;;
39518;SDS011;25200;53.394;10.414;2022-09-29T12:16:23;8.05;;;5.13;;
39518;SDS011;25200;53.394;10.414;2022-09-29T12:21:40;7.55;;;4.53;;
39518;SDS011;25200;53.394;10.414;2022-09-29T12:24:18;7.83;;;4.73;;
39518;SDS011;25200;53.394;10.414;2022-09-29T12:26:45;7.75;;;4.70;;
39518;SDS011;25200;53.394;10.414;2022-09-29T12:32:04;8.60;;;5.32;;
39518;SDS011;25200;53.394;10.414;2022-09-29T12:37:11;11.18;;;5.97;;
39518;SDS011;25200;53.394;10.414;2022-09-29T12:39:54;8.43;;;5.40;;
39518;SDS011;25200;53.394;10.414;2022-09-29T12:45:27;9.55;;;5.13;;
39518;SDS011;25200;53.394;10.414;2022-09-29T12:48:10;15.02;;;5.38;;
39518;SDS011;25200;53.394;10.414;2022-09-29T12:50:41;9.57;;;5.35;;
39518;SDS011;25200;53.394;10.414;2022-09-29T12:53:24;9.93;;;6.50;;
39518;SDS011;25200;53.394;10.414;2022-09-29T12:56:04;12.43;;;6.35;;
39518;SDS011;25200;53.394;10.414;2022-09-29T12:58:56;9.88;;;6.50;;
39518;SDS011;25200;53.394;10.414;2022-09-29T13:01:31;10.20;;;6.28;;
39518;SDS011;25200;53.394;10.414;2022-09-29T13:10:21;11.07;;;5.88;;
39518;SDS011;25200;53.394;10.414;2022-09-29T13:22:51;9.15;;;5.78;;
39518;SDS011;25200;53.394;10.414;2022-09-29T13:27:59;10.30;;;6.30;;
39518;SDS011;25200;53.394;10.414;2022-09-29T13:35:36;12.82;;;6.00;;
39518;SDS011;25200;53.394;10.414;2022-09-29T13:38:05;8.93;;;4.78;;
39518;SDS011;25200;53.394;10.414;2022-09-29T13:40:32;7.82;;;5.13;;
39518;SDS011;25200;53.394;10.414;2022-09-29T13:42:59;11.43;;;5.65;;
39518;SDS011;25200;53.394;10.414;2022-09-29T13:47:59;11.20;;;5.07;;
39518;SDS011;25200;53.394;10.414;2022-09-29T13:58:27;7.35;;;4.78;;
39518;SDS011;25200;53.394;10.414;2022-09-29T14:01:00;10.82;;;4.95;;
39518;SDS011;25200;53.394;10.414;2022-09-29T14:03:32;10.15;;;5.35;;
39518;SDS011;25200;53.394;10.414;2022-09-29T14:06:03;9.93;;;4.93;;
39518;SDS011;25200;53.394;10.414;2022-09-29T14:08:37;10.50;;;5.80;;
39518;SDS011;25200;53.394;10.414;2022-09-29T14:11:37;10.13;;;5.55;;
39518;SDS011;25200;53.394;10.414;2022-09-29T14:14:08;9.25;;;4.97;;
39518;SDS011;25200;53.394;10.414;2022-09-29T14:17:24;8.27;;;5.45;;
39518;SDS011;25200;53.394;10.414;2022-09-29T14:32:40;9.73;;;6.18;;
39518;SDS011;25200;53.394;10.414;2022-09-29T14:37:49;10.20;;;6.70;;
39518;SDS011;25200;53.394;10.414;2022-09-29T14:40:23;11.32;;;6.45;;
39518;SDS011;25200;53.394;10.414;2022-09-29T14:57:59;14.07;;;7.88;;
39518;SDS011;25200;53.394;10.414;2022-09-29T15:00:43;14.60;;;8.85;;
39518;SDS011;25200;53.394;10.414;2022-09-29T15:03:23;13.93;;;10.05;;
39518;SDS011;25200;53.394;10.414;2022-09-29T15:06:02;14.55;;;8.70;;
39518;SDS011;25200;53.394;10.414;2022-09-29T15:08:53;13.90;;;9.23;;
39518;SDS011;25200;53.394;10.414;2022-09-29T15:14:01;14.32;;;9.10;;
39518;SDS011;25200;53.394;10.414;2022-09-29T15:17:04;14.65;;;9.07;;
39518;SDS011;25200;53.394;10.414;2022-09-29T15:22:58;14.40;;;9.60;;
39518;SDS011;25200;53.394;10.414;2022-09-29T15:25:38;13.98;;;9.00;;
39518;SDS011;25200;53.394;10.414;2022-09-29T15:28:24;16.48;;;10.18;;
39518;SDS011;25200;53.394;10.414;2022-09-29T15:30:54;12.70;;;8.43;;
39518;SDS011;25200;53.394;10.414;2022-09-29T15:36:37;15.75;;;9.15;;
39518;SDS011;25200;53.394;10.414;2022-09-29T15:38:43;14.70;;;9.23;;
39518;SDS011;25200;53.394;10.414;2022-09-29T15:43:42;17.40;;;9.40;;
39518;SDS011;25200;53.394;10.414;2022-09-29T15:49:20;15.98;;;10.75;;
39518;SDS011;25200;53.394;10.414;2022-09-29T15:52:03;16.42;;;10.32;;
39518;SDS011;25200;53.394;10.414;2022-09-29T15:57:04;19.23;;;10.82;;
39518;SDS011;25200;53.394;10.414;2022-09-29T15:59:52;17.25;;;11.07;;
39518;SDS011;25200;53.394;10.414;2022-09-29T16:07:24;16.08;;;10.02;;
39518;SDS011;25200;53.394;10.414;2022-09-29T16:09:52;15.77;;;10.18;;
39518;SDS011;25200;53.394;10.414;2022-09-29T16:12:24;16.45;;;10.00;;
39518;SDS011;25200;53.394;10.414;2022-09-29T16:14:52;18.10;;;10.88;;
39518;SDS011;25200;53.394;10.414;2022-09-29T16:17:20;17.27;;;10.50;;
39518;SDS011;25200;53.394;10.414;2022-09-29T16:19:46;18.35;;;11.60;;
39518;SDS011;25200;53.394;10.414;2022-09-29T16:22:16;24.38;;;15.35;;
39518;SDS011;25200;53.394;10.414;2022-09-29T16:24:51;28.75;;;16.52;;
39518;SDS011;25200;53.394;10.414;2022-09-29T16:27:43;22.80;;;15.38;;
39518;SDS011;25200;53.394;10.414;2022-09-29T16:30:21;23.73;;;15.70;;
39518;SDS011;25200;53.394;10.414;2022-09-29T16:38:37;23.45;;;14.90;;
39518;SDS011;25200;53.394;10.414;2022-09-29T16:43:39;21.00;;;13.35;;
39518;SDS011;25200;53.394;10.414;2022-09-29T16:46:09;20.92;;;13.80;;
39518;SDS011;25200;53.394;10.414;2022-09-29T16:48:46;21.25;;;13.32;;
39518;SDS011;25200;53.394;10.414;2022-09-29T16:51:14;22.73;;;13.38;;
39518;SDS011;25200;53.394;10.414;2022-09-29T16:53:46;19.75;;;13.27;;
39518;SDS011;25200;53.394;10.414;2022-09-29T16:56:17;22.55;;;14.10;;
39518;SDS011;25200;53.394;10.414;2022-09-29T16:59:12;23.70;;;12.90;;
39518;SDS011;25200;53.394;10.414;2022-09-29T17:01:40;24.73;;;15.40;;
39518;SDS011;25200;53.394;10.414;2022-09-29T17:04:07;24.65;;;16.23;;
39518;SDS011;25200;53.394;10.414;2022-09-29T17:06:34;23.45;;;15.18;;
39518;SDS011;25200;53.394;10.414;2022-09-29T17:09:00;22.35;;;14.70;;
39518;SDS011;25200;53.394;10.414;2022-09-29T17:11:27;21.83;;;14.93;;
39518;SDS011;25200;53.394;10.414;2022-09-29T17:13:53;24.60;;;14.05;;
39518;SDS011;25200;53.394;10.414;2022-09-29T17:16:22;18.83;;;12.68;;
39518;SDS011;25200;53.394;10.414;2022-09-29T17:18:49;23.45;;;12.82;;
39518;SDS011;25200;53.394;10.414;2022-09-29T17:21:17;19.23;;;12.15;;
39518;SDS011;25200;53.394;10.414;2022-09-29T17:23:43;19.20;;;12.43;;
39518;SDS011;25200;53.394;10.414;2022-09-29T17:26:16;15.30;;;9.68;;
39518;SDS011;25200;53.394;10.414;2022-09-29T17:29:03;17.02;;;9.57;;
39518;SDS011;25200;53.394;10.414;2022-09-29T17:31:29;16.52;;;9.32;;
39518;SDS011;25200;53.394;10.414;2022-09-29T17:33:55;12.18;;;7.88;;
39518;SDS011;25200;53.394;10.414;2022-09-29T17:36:20;12.90;;;8.07;;
39518;SDS011;25200;53.394;10.414;2022-09-29T17:38:48;12.70;;;8.10;;
39518;SDS011;25200;53.394;10.414;2022-09-29T17:41:15;11.68;;;7.43;;
39518;SDS011;25200;53.394;10.414;2022-09-29T17:43:42;13.07;;;7.57;;
39518;SDS011;25200;53.394;10.414;2022-09-29T17:46:11;10.65;;;7.03;;
39518;SDS011;25200;53.394;10.414;2022-09-29T17:48:40;11.88;;;7.40;;
39518;SDS011;25200;53.394;10.414;2022-09-29T17:51:13;12.65;;;7.72;;
39518;SDS011;25200;53.394;10.414;2022-09-29T17:53:42;11.43;;;7.80;;
39518;SDS011;25200;53.394;10.414;2022-09-29T17:56:14;15.48;;;8.85;;
39518;SDS011;25200;53.394;10.414;2022-09-29T17:58:50;13.13;;;8.02;;
39518;SDS011;25200;53.394;10.414;2022-09-29T18:01:19;14.75;;;8.43;;
39518;SDS011;25200;53.394;10.414;2022-09-29T18:03:47;15.32;;;8.98;;
39518;SDS011;25200;53.394;10.414;2022-09-29T18:06:18;12.25;;;7.57;;
39518;SDS011;25200;53.394;10.414;2022-09-29T18:08:46;14.18;;;9.13;;
39518;SDS011;25200;53.394;10.414;2022-09-29T18:11:14;11.90;;;7.72;;
39518;SDS011;25200;53.394;10.414;2022-09-29T18:13:42;15.07;;;9.50;;
39518;SDS011;25200;53.394;10.414;2022-09-29T18:16:09;12.70;;;8.32;;
39518;SDS011;25200;53.394;10.414;2022-09-29T18:18:38;13.02;;;8.10;;
39518;SDS011;25200;53.394;10.414;2022-09-29T18:21:03;15.90;;;8.80;;
39518;SDS011;25200;53.394;10.414;2022-09-29T18:23:30;12.18;;;8.32;;
39518;SDS011;25200;53.394;10.414;2022-09-29T18:25:56;12.60;;;8.10;;
39518;SDS011;25200;53.394;10.414;2022-09-29T18:28:22;12.20;;;7.35;;
39518;SDS011;25200;53.394;10.414;2022-09-29T18:30:48;10.82;;;6.95;;
39518;SDS011;25200;53.394;10.414;2022-09-29T18:33:18;11.88;;;7.97;;
39518;SDS011;25200;53.394;10.414;2022-09-29T18:35:45;11.88;;;7.75;;
39518;SDS011;25200;53.394;10.414;2022-09-29T18:38:16;10.73;;;7.68;;
39518;SDS011;25200;53.394;10.414;2022-09-29T18:40:42;10.73;;;7.05;;